Time;durP1;ratioP1;P1;durP2;ratioP2;P2;SDS_P1;SDS_P2;PMS_P1;PMS_P2;Temp;Humidity;BMP_temperature;BMP_pressure;BME280_temperature;BME280_humidity;BME280_pressure;Samples;Min_cycle;Max_cycle;Signal;HPM_P1;HPM_P2
2021/07/03 00:01:22;;;;;;;7.83;7.03;;;16.40;99.90;;;;;;5031953;28;21004;-51
2021/07/03 00:03:49;;;;;;;7.93;7.00;;;16.20;99.90;;;;;;5031910;28;20449;-51
2021/07/03 00:06:16;;;;;;;8.67;7.57;;;16.30;99.90;;;;;;5031424;28;20473;-50
2021/07/03 00:08:43;;;;;;;10.00;6.40;;;16.30;99.90;;;;;;5027015;28;20823;-51
2021/07/03 00:11:11;;;;;;;8.30;6.97;;;16.30;99.90;;;;;;5012332;28;20453;-50
2021/07/03 00:13:38;;;;;;;9.10;7.47;;;16.30;99.90;;;;;;5036026;28;20481;-49
2021/07/03 00:16:06;;;;;;;9.17;6.57;;;16.30;99.90;;;;;;5031866;28;20534;-50
2021/07/03 00:18:34;;;;;;;9.73;8.30;;;16.30;99.90;;;;;;5031865;28;20448;-51
2021/07/03 00:21:02;;;;;;;11.70;8.43;;;16.30;99.90;;;;;;5031748;28;20513;-50
2021/07/03 00:23:30;;;;;;;9.83;7.90;;;16.30;99.90;;;;;;5031197;28;21016;-51
2021/07/03 00:25:57;;;;;;;9.80;8.07;;;16.20;99.90;;;;;;5031693;28;20452;-50
2021/07/03 00:28:26;;;;;;;11.73;7.83;;;16.20;99.90;;;;;;5031667;28;20880;-50
2021/07/03 00:30:53;;;;;;;11.87;9.27;;;16.20;99.90;;;;;;5031627;28;20457;-50
2021/07/03 00:33:20;;;;;;;11.57;8.27;;;16.20;99.90;;;;;;5043169;28;21078;-50
2021/07/03 00:35:47;;;;;;;11.27;8.73;;;16.20;99.90;;;;;;5051051;28;20509;-51
2021/07/03 00:38:14;;;;;;;12.57;8.20;;;16.20;99.90;;;;;;5051416;28;20447;-50
2021/07/03 00:40:41;;;;;;;10.33;8.00;;;16.20;99.90;;;;;;5037190;28;20862;-50
2021/07/03 00:43:08;;;;;;;11.00;7.60;;;16.10;99.90;;;;;;5031308;28;20522;-50
2021/07/03 00:45:36;;;;;;;9.10;6.70;;;16.20;99.90;;;;;;5036370;28;20529;-50
2021/07/03 00:48:03;;;;;;;11.00;7.90;;;16.10;99.90;;;;;;5037956;28;20472;-50
2021/07/03 00:50:30;;;;;;;13.90;8.37;;;16.10;99.90;;;;;;5030469;28;20905;-50
2021/07/03 00:52:57;;;;;;;10.13;7.83;;;16.10;99.90;;;;;;5017898;28;20504;-50
2021/07/03 00:55:27;;;;;;;11.73;8.43;;;16.00;99.90;;;;;;5018069;28;20437;-50
2021/07/03 00:57:55;;;;;;;10.07;8.50;;;16.00;99.90;;;;;;5036470;28;20492;-50
2021/07/03 01:00:23;;;;;;;11.10;9.30;;;16.00;99.90;;;;;;5038229;28;20510;-51
2021/07/03 01:02:51;;;;;;;11.40;8.47;;;16.00;99.90;;;;;;5037436;28;20449;-50
2021/07/03 01:05:18;;;;;;;10.60;8.47;;;16.00;99.90;;;;;;5037784;28;20502;-49
2021/07/03 01:07:45;;;;;;;11.23;7.60;;;15.90;99.90;;;;;;5037676;28;20468;-49
2021/07/03 01:10:20;;;;;;;10.30;8.17;;;15.80;99.90;;;;;;5041790;28;20451;-50
2021/07/03 01:12:48;;;;;;;10.97;8.33;;;15.80;99.90;;;;;;5057019;28;20492;-49
2021/07/03 01:15:16;;;;;;;12.20;8.13;;;15.80;99.90;;;;;;5038240;28;20480;-50
2021/07/03 01:17:43;;;;;;;12.30;8.20;;;15.80;99.90;;;;;;5037400;28;20465;-49
2021/07/03 01:20:13;;;;;;;11.27;7.73;;;15.80;99.90;;;;;;5041236;28;20528;-50
2021/07/03 01:22:43;;;;;;;9.33;7.83;;;15.60;99.90;;;;;;5057440;28;20464;-50
2021/07/03 01:25:12;;;;;;;10.43;7.30;;;15.70;99.90;;;;;;5057815;28;20443;-49
2021/07/03 01:27:40;;;;;;;9.80;7.80;;;15.70;99.90;;;;;;5057433;28;21000;-49
2021/07/03 01:30:09;;;;;;;10.90;8.00;;;15.70;99.90;;;;;;5049534;28;20453;-50
2021/07/03 01:32:37;;;;;;;10.70;8.10;;;15.70;99.90;;;;;;5037019;28;20566;-50
2021/07/03 01:35:05;;;;;;;11.13;8.70;;;15.70;99.90;;;;;;5037429;28;20545;-49
2021/07/03 01:37:32;;;;;;;10.87;7.60;;;15.70;99.90;;;;;;5037420;28;20531;-50
2021/07/03 01:40:01;;;;;;;11.47;7.97;;;15.70;99.90;;;;;;5037647;28;20452;-50
2021/07/03 01:42:28;;;;;;;10.80;7.63;;;15.70;99.90;;;;;;5037114;28;20448;-50
2021/07/03 01:44:55;;;;;;;12.77;8.23;;;15.70;99.90;;;;;;5037587;28;21032;-50
2021/07/03 01:47:21;;;;;;;10.73;7.53;;;15.70;99.90;;;;;;5037168;28;21047;-50
2021/07/03 01:49:49;;;;;;;10.37;8.30;;;15.70;99.90;;;;;;5037416;28;20436;-49
2021/07/03 01:52:17;;;;;;;11.40;8.57;;;15.60;99.90;;;;;;5051948;28;20454;-50
2021/07/03 01:54:45;;;;;;;9.57;7.83;;;15.60;99.90;;;;;;5057256;28;20483;-49
2021/07/03 01:57:13;;;;;;;10.97;8.27;;;15.60;99.90;;;;;;5053859;28;20467;-50
2021/07/03 01:59:40;;;;;;;14.10;8.10;;;15.50;99.90;;;;;;5040482;28;20456;-51
2021/07/03 02:02:07;;;;;;;8.17;6.80;;;15.50;99.90;;;;;;5030778;28;20534;-51
2021/07/03 02:04:34;;;;;;;11.13;7.40;;;15.60;99.90;;;;;;5033909;28;20460;-50
2021/07/03 02:07:01;;;;;;;9.20;7.10;;;15.50;99.90;;;;;;5025922;28;20464;-50
2021/07/03 02:09:28;;;;;;;10.93;6.90;;;15.50;99.90;;;;;;5017925;28;20457;-50
2021/07/03 02:11:55;;;;;;;12.50;7.23;;;15.50;99.90;;;;;;5023296;28;20457;-50
2021/07/03 02:14:24;;;;;;;10.23;7.33;;;15.50;99.90;;;;;;5028708;28;20488;-51
2021/07/03 02:16:51;;;;;;;9.00;7.00;;;15.40;99.90;;;;;;5034261;28;20936;-51
2021/07/03 02:19:20;;;;;;;10.50;7.20;;;15.40;99.90;;;;;;5034146;28;21145;-50
2021/07/03 02:21:48;;;;;;;11.17;7.00;;;15.50;99.90;;;;;;5033991;28;20463;-51
2021/07/03 02:24:15;;;;;;;11.10;6.73;;;15.40;99.90;;;;;;5039050;28;20448;-50
2021/07/03 02:26:42;;;;;;;12.83;7.13;;;15.40;99.90;;;;;;5034000;28;20530;-50
2021/07/03 02:29:10;;;;;;;10.83;6.97;;;15.40;99.90;;;;;;5033855;28;20448;-49
2021/07/03 02:31:38;;;;;;;10.90;7.23;;;15.50;99.90;;;;;;5034010;28;20444;-50
2021/07/03 02:34:05;;;;;;;9.33;7.03;;;15.50;99.90;;;;;;5038380;28;20484;-50
2021/07/03 02:36:33;;;;;;;10.00;7.60;;;15.50;99.90;;;;;;5072116;22;20542;-57
2021/07/03 02:38:59;;;;;;;9.17;7.17;;;15.40;99.90;;;;;;5033916;28;20837;-58
2021/07/03 02:41:27;;;;;;;8.57;7.50;;;15.30;99.90;;;;;;5033898;28;20471;-58
2021/07/03 02:43:54;;;;;;;7.50;6.47;;;15.40;99.90;;;;;;5033120;28;20864;-58
2021/07/03 02:46:21;;;;;;;9.70;7.30;;;15.30;99.90;;;;;;5033275;28;20965;-58
2021/07/03 02:48:49;;;;;;;10.70;7.10;;;15.40;99.90;;;;;;5033509;28;20452;-58
2021/07/03 02:51:16;;;;;;;9.10;7.17;;;15.30;99.90;;;;;;5033744;28;20502;-58
2021/07/03 02:53:43;;;;;;;8.87;6.47;;;15.30;99.90;;;;;;5032909;28;20484;-58
2021/07/03 02:56:10;;;;;;;8.73;7.83;;;15.30;99.90;;;;;;5033380;28;21008;-58
2021/07/03 02:58:37;;;;;;;9.87;7.50;;;15.30;99.90;;;;;;5033432;28;20506;-58
2021/07/03 03:01:04;;;;;;;10.17;7.97;;;15.30;99.90;;;;;;5033409;28;20453;-58
2021/07/03 03:03:32;;;;;;;9.70;7.40;;;15.30;99.90;;;;;;5032487;28;20511;-57
2021/07/03 03:06:00;;;;;;;12.13;8.70;;;15.20;99.90;;;;;;5033279;28;20449;-58
2021/07/03 03:08:27;;;;;;;10.27;7.67;;;15.20;99.90;;;;;;5031978;28;20538;-58
2021/07/03 03:10:54;;;;;;;11.80;8.10;;;15.30;99.90;;;;;;5033267;28;20506;-58
2021/07/03 03:13:21;;;;;;;11.73;7.77;;;15.20;99.90;;;;;;5032714;28;20519;-57
2021/07/03 03:15:48;;;;;;;11.10;7.87;;;15.30;99.90;;;;;;5033015;28;20550;-58
2021/07/03 03:18:15;;;;;;;10.43;7.43;;;15.30;99.90;;;;;;5033260;28;20472;-58
2021/07/03 03:20:42;;;;;;;11.10;8.20;;;15.20;99.90;;;;;;5032974;28;20880;-57
2021/07/03 03:23:10;;;;;;;10.47;7.43;;;15.20;99.90;;;;;;5031776;28;20503;-58
2021/07/03 03:25:38;;;;;;;11.90;8.10;;;15.20;99.90;;;;;;5031992;28;20950;-58
2021/07/03 03:28:05;;;;;;;12.20;8.20;;;15.20;99.90;;;;;;5032252;28;20464;-59
2021/07/03 03:30:32;;;;;;;11.27;9.10;;;15.10;99.90;;;;;;5032182;28;20445;-57
2021/07/03 03:32:59;;;;;;;10.07;8.07;;;15.10;99.90;;;;;;5031945;28;20441;-58
2021/07/03 03:35:26;;;;;;;10.63;7.67;;;15.20;99.90;;;;;;5030633;28;20563;-57
2021/07/03 03:37:53;;;;;;;9.20;6.97;;;15.20;99.90;;;;;;5030137;28;20476;-58
2021/07/03 03:40:22;;;;;;;9.80;7.63;;;15.20;99.90;;;;;;5031354;28;20441;-58
2021/07/03 03:42:49;;;;;;;10.83;8.00;;;15.10;99.90;;;;;;5030848;28;20452;-58
2021/07/03 03:45:16;;;;;;;11.87;9.03;;;15.20;99.90;;;;;;5031104;28;20888;-57
2021/07/03 03:47:43;;;;;;;12.90;8.47;;;15.20;99.90;;;;;;5030432;28;20472;-58
2021/07/03 03:50:12;;;;;;;11.37;8.60;;;15.20;99.90;;;;;;5030940;28;21705;-57
2021/07/03 03:52:39;;;;;;;11.53;7.37;;;15.20;99.90;;;;;;5029002;28;20452;-57
2021/07/03 03:55:08;;;;;;;10.27;8.50;;;15.20;99.90;;;;;;5027301;28;20854;-58
2021/07/03 03:57:36;;;;;;;11.70;8.57;;;15.20;99.90;;;;;;5030953;28;20468;-57
2021/07/03 04:00:06;;;;;;;9.63;6.87;;;15.20;99.90;;;;;;5031322;28;20444;-58
2021/07/03 04:02:33;;;;;;;7.27;6.20;;;15.30;99.90;;;;;;5031049;28;20842;-58
2021/07/03 04:05:00;;;;;;;10.33;7.57;;;15.30;99.90;;;;;;5030798;28;21000;-58
2021/07/03 04:07:27;;;;;;;9.40;6.90;;;15.30;99.90;;;;;;5030407;28;20522;-59
2021/07/03 04:09:54;;;;;;;8.47;6.70;;;15.30;99.90;;;;;;5029728;28;20452;-58
2021/07/03 04:12:21;;;;;;;10.70;7.63;;;15.40;99.90;;;;;;5030380;28;20449;-58
2021/07/03 04:14:49;;;;;;;9.60;7.23;;;15.30;99.90;;;;;;5030631;28;20484;-57
2021/07/03 04:17:17;;;;;;;8.53;7.17;;;15.40;99.90;;;;;;5029941;28;20508;-58
2021/07/03 04:19:44;;;;;;;11.13;7.93;;;15.40;99.90;;;;;;5030642;28;20533;-57
2021/07/03 04:22:11;;;;;;;13.10;7.33;;;15.50;99.90;;;;;;5030268;28;20451;-57
2021/07/03 04:24:38;;;;;;;8.63;7.00;;;15.60;99.90;;;;;;5029945;28;20449;-57
2021/07/03 04:27:05;;;;;;;12.00;7.70;;;15.60;99.90;;;;;;5030477;28;20468;-58
2021/07/03 04:29:32;;;;;;;9.60;7.63;;;15.60;99.90;;;;;;5030689;28;20491;-58
2021/07/03 04:32:01;;;;;;;11.37;8.60;;;15.70;99.90;;;;;;5030334;28;20440;-58
2021/07/03 04:34:28;;;;;;;10.90;8.10;;;15.60;99.90;;;;;;5030026;28;20461;-58
2021/07/03 04:36:56;;;;;;;12.43;7.60;;;15.70;99.90;;;;;;5029900;28;20477;-57
2021/07/03 04:39:23;;;;;;;10.30;8.03;;;15.70;99.90;;;;;;5030614;28;20453;-58
2021/07/03 04:41:52;;;;;;;9.80;7.53;;;15.90;99.90;;;;;;5028171;28;20468;-58
2021/07/03 04:44:19;;;;;;;11.30;7.50;;;16.10;99.90;;;;;;5030599;28;20876;-58
2021/07/03 04:46:47;;;;;;;12.27;8.00;;;16.20;99.90;;;;;;5030677;28;20460;-57
2021/07/03 04:49:16;;;;;;;11.27;7.60;;;16.30;99.90;;;;;;5026232;28;20457;-58
2021/07/03 04:51:43;;;;;;;11.03;7.97;;;16.50;99.90;;;;;;5030039;28;20440;-58
2021/07/03 04:54:10;;;;;;;8.57;7.07;;;16.60;99.90;;;;;;5029956;28;20479;-57
2021/07/03 04:56:38;;;;;;;8.03;6.60;;;16.80;99.90;;;;;;5029904;28;20551;-58
2021/07/03 04:59:05;;;;;;;8.70;6.60;;;17.10;99.90;;;;;;5030256;28;20809;-57
2021/07/03 05:01:32;;;;;;;9.37;7.00;;;17.40;99.90;;;;;;5030207;28;20449;-58
2021/07/03 05:03:59;;;;;;;9.00;7.43;;;17.70;99.90;;;;;;5029673;28;21031;-58
2021/07/03 05:06:27;;;;;;;9.43;7.30;;;18.20;99.90;;;;;;5030519;28;21048;-56
2021/07/03 05:08:54;;;;;;;8.23;6.60;;;19.00;99.90;;;;;;5030512;28;20453;-57
2021/07/03 05:11:21;;;;;;;7.70;6.80;;;20.10;99.90;;;;;;5029842;28;20444;-58
2021/07/03 05:13:48;;;;;;;7.60;6.73;;;21.20;99.90;;;;;;5029823;28;20441;-58
2021/07/03 05:16:15;;;;;;;7.87;6.17;;;22.10;99.90;;;;;;5029096;28;20550;-59
2021/07/03 05:18:42;;;;;;;6.73;6.03;;;22.90;99.90;;;;;;5029892;28;20988;-57
2021/07/03 05:21:09;;;;;;;7.00;5.80;;;23.50;99.90;;;;;;5030053;28;20449;-58
2021/07/03 05:23:38;;;;;;;7.47;6.77;;;24.20;99.90;;;;;;5029932;28;20444;-57
2021/07/03 05:26:05;;;;;;;8.23;5.40;;;24.60;99.90;;;;;;5029827;28;21001;-57
2021/07/03 05:28:32;;;;;;;7.00;5.63;;;24.90;99.90;;;;;;5029528;28;20503;-58
2021/07/03 05:30:59;;;;;;;6.70;5.50;;;24.80;99.90;;;;;;5030034;28;20440;-57
2021/07/03 05:33:26;;;;;;;7.37;6.03;;;24.70;99.90;;;;;;5033266;28;20444;-58
2021/07/03 05:35:53;;;;;;;6.87;6.10;;;24.40;99.90;;;;;;5032988;28;20526;-57
2021/07/03 05:38:20;;;;;;;6.60;6.00;;;24.60;99.90;;;;;;5033082;28;20480;-58
2021/07/03 05:40:48;;;;;;;7.50;6.10;;;25.00;99.90;;;;;;5033879;28;20452;-57
2021/07/03 05:43:16;;;;;;;10.03;6.10;;;25.60;99.90;;;;;;5033192;28;20961;-56
2021/07/03 05:45:43;;;;;;;6.87;5.87;;;25.90;99.90;;;;;;5033280;28;20962;-58
2021/07/03 05:48:10;;;;;;;8.90;5.93;;;26.40;99.90;;;;;;5033398;28;20542;-57
2021/07/03 05:50:37;;;;;;;7.10;5.20;;;26.70;99.90;;;;;;5033215;28;20951;-57
2021/07/03 05:53:04;;;;;;;7.23;5.30;;;26.80;99.90;;;;;;5032318;28;20456;-58
2021/07/03 05:55:31;;;;;;;5.60;4.83;;;26.60;99.90;;;;;;5035075;28;20542;-58
2021/07/03 05:57:59;;;;;;;5.33;4.83;;;26.30;99.90;;;;;;5032273;28;20476;-58
2021/07/03 06:00:26;;;;;;;6.77;5.33;;;26.80;99.90;;;;;;5033434;28;20463;-58
2021/07/03 06:02:53;;;;;;;6.93;4.63;;;27.10;99.90;;;;;;5027779;28;20999;-57
2021/07/03 06:05:20;;;;;;;5.23;4.73;;;27.30;99.90;;;;;;5033072;28;21007;-57
2021/07/03 06:07:48;;;;;;;6.33;4.90;;;27.40;99.90;;;;;;5033396;28;20476;-57
2021/07/03 06:10:15;;;;;;;5.00;4.50;;;26.90;99.90;;;;;;5030579;28;20460;-57
2021/07/03 06:12:42;;;;;;;5.70;5.10;;;26.80;99.90;;;;;;5031437;28;20547;-57
2021/07/03 06:15:12;;;;;;;5.20;4.70;;;26.20;99.90;;;;;;5035288;28;20487;-58
2021/07/03 06:17:39;;;;;;;7.67;4.70;;;26.30;99.90;;;;;;5033072;28;20534;-59
2021/07/03 06:20:09;;;;;;;6.00;4.73;;;26.40;99.90;;;;;;5034001;28;20876;-58
2021/07/03 06:22:36;;;;;;;4.80;4.40;;;27.00;99.90;;;;;;5029787;28;20544;-58
2021/07/03 06:25:06;;;;;;;5.60;4.80;;;27.10;99.90;;;;;;5033367;28;20448;-59
2021/07/03 06:27:33;;;;;;;6.80;4.50;;;27.30;99.90;;;;;;5032363;28;20989;-58
2021/07/03 06:30:00;;;;;;;5.20;4.70;;;27.60;99.90;;;;;;5032938;28;20441;-58
2021/07/03 06:32:29;;;;;;;5.57;4.67;;;27.80;99.90;;;;;;5033128;28;20792;-61
2021/07/03 06:34:56;;;;;;;5.13;4.40;;;27.70;99.90;;;;;;5029312;28;20448;-61
2021/07/03 06:37:23;;;;;;;4.90;4.50;;;27.90;99.90;;;;;;5033202;28;20472;-60
2021/07/03 06:39:50;;;;;;;4.83;4.43;;;28.00;99.90;;;;;;5033043;28;20444;-61
2021/07/03 06:42:19;;;;;;;5.07;4.47;;;28.20;99.90;;;;;;5029444;28;20464;-60
2021/07/03 06:44:46;;;;;;;4.80;4.30;;;28.50;99.90;;;;;;5029978;28;20543;-61
2021/07/03 06:47:13;;;;;;;4.43;4.03;;;28.70;99.90;;;;;;5032918;28;20950;-61
2021/07/03 06:49:42;;;;;;;4.30;3.90;;;29.00;99.90;;;;;;5033846;28;20552;-61
2021/07/03 06:52:10;;;;;;;5.83;4.50;;;28.70;99.90;;;;;;5031175;28;20449;-61
2021/07/03 06:54:38;;;;;;;6.20;4.20;;;28.20;97.50;;;;;;5032814;28;20526;-61
2021/07/03 06:57:06;;;;;;;4.37;4.00;;;28.30;99.00;;;;;;5032868;28;20485;-61
2021/07/03 06:59:33;;;;;;;4.50;4.10;;;28.30;99.00;;;;;;5031752;28;20510;-61
2021/07/03 07:02:00;;;;;;;4.80;4.40;;;27.50;98.00;;;;;;5029095;28;20448;-61
2021/07/03 07:04:27;;;;;;;4.73;4.33;;;27.40;99.00;;;;;;5032291;28;20511;-60
2021/07/03 07:06:59;;;;;;;4.93;4.43;;;27.80;99.30;;;;;;5028217;28;20476;-61
2021/07/03 07:09:27;;;;;;;6.50;4.60;;;28.00;99.90;;;;;;5031836;28;20481;-60
2021/07/03 07:11:56;;;;;;;6.40;4.83;;;28.50;99.90;;;;;;5031875;28;20511;-60
2021/07/03 07:14:24;;;;;;;5.00;4.60;;;28.60;98.70;;;;;;5028638;28;20493;-61
2021/07/03 07:16:51;;;;;;;4.53;4.13;;;29.00;98.20;;;;;;5031293;28;20249;-61
2021/07/03 07:19:18;;;;;;;5.17;4.67;;;29.30;97.00;;;;;;5029975;28;20453;-59
2021/07/03 07:21:46;;;;;;;5.03;4.63;;;29.40;97.20;;;;;;5030500;28;20499;-58
2021/07/03 07:24:14;;;;;;;6.97;4.10;;;30.00;97.40;;;;;;5030602;28;20996;-60
2021/07/03 07:26:41;;;;;;;4.70;4.30;;;30.10;94.60;;;;;;5029520;28;21029;-61
2021/07/03 07:29:08;;;;;;;5.87;4.63;;;29.90;96.80;;;;;;5030890;28;20897;-61
2021/07/03 07:31:35;;;;;;;5.00;4.60;;;29.90;97.00;;;;;;5029764;28;20468;-60
2021/07/03 07:34:03;;;;;;;4.43;4.00;;;29.70;95.70;;;;;;5026549;28;21794;-61
2021/07/03 07:36:30;;;;;;;4.13;3.73;;;29.50;93.80;;;;;;5030162;28;20495;-60
2021/07/03 07:38:57;;;;;;;4.73;4.33;;;30.10;95.50;;;;;;5030493;28;20476;-61
2021/07/03 07:41:25;;;;;;;5.60;5.07;;;30.30;95.60;;;;;;5030543;28;20457;-61
2021/07/03 07:43:52;;;;;;;5.10;4.50;;;30.30;94.10;;;;;;5030753;28;20476;-60
2021/07/03 07:46:19;;;;;;;4.70;4.30;;;30.50;93.60;;;;;;5030840;28;20937;-60
2021/07/03 07:48:46;;;;;;;4.87;4.47;;;30.60;92.50;;;;;;5031896;28;20449;-60
2021/07/03 07:51:13;;;;;;;4.33;3.90;;;30.70;92.50;;;;;;5032254;28;20459;-60
2021/07/03 07:53:40;;;;;;;4.70;4.30;;;31.10;92.70;;;;;;5030970;28;20526;-60
2021/07/03 07:56:07;;;;;;;4.20;3.90;;;30.80;93.20;;;;;;5031592;28;20487;-60
2021/07/03 07:58:36;;;;;;;4.43;4.13;;;30.90;90.60;;;;;;5030766;28;20448;-60
2021/07/03 08:01:03;;;;;;;4.77;4.37;;;30.90;93.00;;;;;;5032078;28;20852;-60
2021/07/03 08:03:30;;;;;;;4.67;4.33;;;30.00;92.30;;;;;;5031627;28;20452;-59
2021/07/03 08:05:57;;;;;;;6.20;4.57;;;30.10;92.70;;;;;;5031881;28;20445;-60
2021/07/03 08:08:26;;;;;;;5.23;4.73;;;30.20;95.10;;;;;;5031575;28;20480;-60
2021/07/03 08:10:53;;;;;;;4.70;4.30;;;30.00;93.60;;;;;;5030952;28;20978;-60
2021/07/03 08:13:20;;;;;;;5.10;4.47;;;29.80;92.60;;;;;;5031106;28;20459;-60
2021/07/03 08:15:50;;;;;;;4.90;4.50;;;30.10;93.50;;;;;;5030055;28;20507;-60
2021/07/03 08:18:19;;;;;;;4.80;4.40;;;30.60;92.80;;;;;;5030413;28;20468;-60
2021/07/03 08:20:47;;;;;;;4.60;4.20;;;30.70;92.40;;;;;;5026562;28;20531;-60
2021/07/03 08:23:14;;;;;;;5.77;4.90;;;30.50;94.80;;;;;;5028714;28;20981;-61
2021/07/03 08:25:41;;;;;;;4.50;4.10;;;29.70;93.60;;;;;;5031772;28;20495;-60
2021/07/03 08:28:08;;;;;;;4.47;4.10;;;30.10;94.10;;;;;;5030917;28;20460;-61
2021/07/03 08:30:36;;;;;;;5.30;4.57;;;30.90;92.70;;;;;;5030140;28;20453;-61
2021/07/03 08:33:04;;;;;;;5.07;4.67;;;31.10;92.60;;;;;;5029831;28;20973;-61
2021/07/03 08:35:31;;;;;;;4.67;4.27;;;31.40;92.50;;;;;;5030220;28;20448;-61
2021/07/03 08:37:58;;;;;;;6.90;4.67;;;31.70;89.90;;;;;;5044215;22;20554;-55
2021/07/03 08:40:25;;;;;;;5.67;5.07;;;32.00;90.20;;;;;;5011847;28;20457;-55
2021/07/03 08:42:52;;;;;;;4.90;4.50;;;31.80;92.40;;;;;;5018478;28;20519;-54
2021/07/03 08:45:19;;;;;;;4.93;3.93;;;29.80;94.90;;;;;;5023666;28;20460;-54
2021/07/03 08:47:47;;;;;;;4.47;3.90;;;30.40;94.50;;;;;;5025347;28;20464;-54
2021/07/03 08:50:18;;;;;;;5.80;4.43;;;30.40;94.50;;;;;;5029400;28;20502;-55
2021/07/03 08:52:46;;;;;;;4.40;4.00;;;30.80;92.60;;;;;;5019282;28;20456;-54
2021/07/03 08:55:17;;;;;;;4.67;4.27;;;31.10;91.90;;;;;;5029825;28;20441;-55
2021/07/03 08:57:48;;;;;;;4.27;3.87;;;31.40;91.40;;;;;;5019674;28;20523;-54
2021/07/03 09:00:17;;;;;;;4.57;4.03;;;30.40;93.60;;;;;;5026791;28;20510;-55
2021/07/03 09:02:46;;;;;;;4.40;4.10;;;30.50;93.90;;;;;;5026190;28;20452;-54
2021/07/03 09:05:29;;;;;;;4.43;4.03;;;30.90;92.70;;;;;;5030637;28;20448;-54
2021/07/03 09:08:04;;;;;;;5.40;4.27;;;31.30;91.70;;;;;;5033232;28;20456;-55
2021/07/03 09:10:32;;;;;;;7.20;4.30;;;31.10;91.60;;;;;;5033764;28;21158;-53
2021/07/03 09:13:01;;;;;;;4.30;4.00;;;31.50;90.90;;;;;;5033666;28;20449;-54
2021/07/03 09:15:31;;;;;;;5.40;5.00;;;32.10;91.60;;;;;;5032780;28;20855;-54
2021/07/03 09:18:00;;;;;;;5.67;4.37;;;32.00;86.10;;;;;;5030630;28;20484;-54
2021/07/03 09:20:34;;;;;;;5.00;4.50;;;32.30;84.40;;;;;;5028320;28;20446;-53
2021/07/03 09:23:10;;;;;;;5.60;4.30;;;32.60;85.20;;;;;;5014556;28;20528;-54
2021/07/03 09:25:38;;;;;;;6.17;5.57;;;32.60;88.80;;;;;;5031156;28;20452;-54
2021/07/03 09:28:14;;;;;;;7.23;6.53;;;30.30;92.70;;;;;;5032669;28;20452;-53
2021/07/03 09:30:42;;;;;;;6.60;5.90;;;28.20;95.70;;;;;;5032614;28;20476;-53
2021/07/03 09:33:09;;;;;;;6.70;5.23;;;27.70;96.40;;;;;;5030558;28;20452;-53
2021/07/03 09:35:38;;;;;;;6.60;5.90;;;27.60;99.40;;;;;;5033033;28;20453;-53
2021/07/03 09:38:07;;;;;;;6.70;5.83;;;26.60;99.90;;;;;;5033244;28;20493;-53
2021/07/03 09:40:36;;;;;;;10.50;5.67;;;26.60;99.90;;;;;;5033675;28;20448;-54
2021/07/03 09:43:21;;;;;;;5.70;5.20;;;27.30;99.90;;;;;;5033869;28;20964;-53
2021/07/03 09:45:49;;;;;;;5.83;5.10;;;27.10;98.20;;;;;;5034656;28;20448;-53
2021/07/03 09:48:16;;;;;;;5.80;5.20;;;27.10;99.10;;;;;;5033963;28;20559;-53
2021/07/03 09:50:44;;;;;;;5.80;5.30;;;27.10;98.90;;;;;;5034469;28;20447;-53
2021/07/03 09:53:11;;;;;;;6.03;5.43;;;27.70;97.20;;;;;;5034265;28;20460;-52
2021/07/03 09:55:39;;;;;;;5.70;5.20;;;27.30;99.00;;;;;;5034361;28;20941;-53
2021/07/03 09:58:08;;;;;;;5.77;5.27;;;27.60;98.30;;;;;;5034088;28;20481;-52
2021/07/03 10:00:35;;;;;;;6.30;5.70;;;28.40;98.50;;;;;;5034221;28;20452;-54
2021/07/03 10:03:05;;;;;;;6.00;5.17;;;28.80;96.50;;;;;;5033832;28;20448;-53
2021/07/03 10:05:35;;;;;;;5.47;5.07;;;29.50;95.60;;;;;;5033710;28;20452;-54
2021/07/03 10:08:07;;;;;;;5.63;5.07;;;30.10;94.50;;;;;;5033329;28;20460;-53
2021/07/03 10:10:37;;;;;;;5.87;5.37;;;29.10;95.20;;;;;;5034343;28;20435;-54
2021/07/03 10:13:08;;;;;;;6.13;5.43;;;28.70;96.10;;;;;;5034017;28;20464;-53
2021/07/03 10:15:36;;;;;;;6.43;5.67;;;28.80;96.30;;;;;;5033466;28;20483;-53
2021/07/03 10:18:15;;;;;;;5.77;5.17;;;28.40;97.70;;;;;;5032080;28;20485;-53
2021/07/03 10:20:43;;;;;;;6.63;5.63;;;28.20;97.90;;;;;;5033044;28;20472;-54
2021/07/03 10:23:13;;;;;;;9.23;5.27;;;28.20;99.90;;;;;;5033724;28;20845;-54
2021/07/03 10:25:41;;;;;;;5.70;5.20;;;28.90;97.50;;;;;;5033885;28;20456;-54
2021/07/03 10:28:10;;;;;;;5.90;5.23;;;29.50;95.60;;;;;;5032669;28;20468;-54
2021/07/03 10:30:39;;;;;;;5.80;5.20;;;29.70;96.20;;;;;;5020737;28;20445;-53
2021/07/03 10:33:08;;;;;;;5.67;5.17;;;28.90;97.20;;;;;;5018474;28;21010;-55
2021/07/03 10:35:44;;;;;;;6.23;4.90;;;29.20;97.90;;;;;;5016940;28;20457;-54
2021/07/03 10:38:22;;;;;;;5.13;4.73;;;29.50;95.10;;;;;;5025478;28;20503;-55
2021/07/03 10:40:50;;;;;;;5.77;5.27;;;29.90;96.70;;;;;;5028624;28;20515;-54
2021/07/03 10:43:18;;;;;;;7.10;5.00;;;30.00;93.90;;;;;;5031053;28;21005;-55
2021/07/03 10:45:49;;;;;;;5.67;4.93;;;30.40;94.90;;;;;;5031197;28;21394;-55
2021/07/03 10:48:22;;;;;;;5.90;5.40;;;30.70;92.70;;;;;;5017538;28;20885;-55
2021/07/03 10:50:50;;;;;;;5.70;5.20;;;30.00;94.50;;;;;;5013833;28;20449;-54
2021/07/03 10:53:25;;;;;;;4.97;4.57;;;30.20;95.30;;;;;;5013352;28;20446;-53
2021/07/03 10:55:53;;;;;;;5.20;4.70;;;29.40;96.60;;;;;;5016682;28;20448;-54
2021/07/03 10:58:22;;;;;;;5.07;4.57;;;29.20;92.80;;;;;;5032996;28;20496;-54
2021/07/03 11:00:51;;;;;;;5.27;4.77;;;29.30;95.30;;;;;;5033403;28;20452;-53
2021/07/03 11:03:23;;;;;;;4.80;4.30;;;28.70;96.90;;;;;;5032319;28;20441;-53
2021/07/03 11:05:50;;;;;;;5.20;4.70;;;28.90;94.20;;;;;;5032592;28;20770;-52
2021/07/03 11:08:20;;;;;;;9.30;4.73;;;28.70;93.80;;;;;;5032949;28;20476;-52
2021/07/03 11:10:49;;;;;;;4.90;4.50;;;28.60;93.90;;;;;;5032875;28;20488;-52
2021/07/03 11:13:23;;;;;;;4.60;4.20;;;28.50;97.60;;;;;;5032185;28;20448;-53
2021/07/03 11:15:50;;;;;;;4.83;4.43;;;28.00;94.20;;;;;;5033028;28;20488;-54
2021/07/03 11:18:17;;;;;;;4.00;3.60;;;27.40;96.70;;;;;;5031100;28;20871;-53
2021/07/03 11:20:45;;;;;;;4.93;4.23;;;27.60;93.30;;;;;;5032808;28;20457;-54
2021/07/03 11:23:13;;;;;;;4.43;4.07;;;27.60;95.70;;;;;;5031933;28;20466;-53
2021/07/03 11:25:42;;;;;;;4.33;3.87;;;27.30;94.80;;;;;;5032429;28;20543;-54
2021/07/03 11:28:12;;;;;;;4.60;3.70;;;26.90;97.10;;;;;;5032721;28;20572;-53
2021/07/03 11:30:41;;;;;;;4.23;3.80;;;26.50;94.10;;;;;;5031759;28;20459;-54
2021/07/03 11:33:09;;;;;;;4.23;3.83;;;26.20;96.10;;;;;;5032482;28;20840;-53
2021/07/03 11:35:40;;;;;;;5.30;3.70;;;26.20;96.60;;;;;;5031591;28;20503;-53
2021/07/03 11:38:07;;;;;;;4.80;4.00;;;26.20;96.10;;;;;;5032383;28;20873;-54
2021/07/03 11:40:34;;;;;;;5.57;4.47;;;25.90;95.00;;;;;;5032444;28;20448;-53
2021/07/03 11:43:04;;;;;;;5.13;4.00;;;26.20;97.00;;;;;;5032222;28;20938;-53
2021/07/03 11:45:34;;;;;;;6.03;4.10;;;26.40;97.30;;;;;;5031944;28;20453;-52
2021/07/03 11:48:07;;;;;;;4.33;3.93;;;26.70;95.40;;;;;;5030632;28;20469;-53
2021/07/03 11:50:36;;;;;;;4.23;3.83;;;26.90;96.30;;;;;;5030649;28;20537;-53
2021/07/03 11:53:05;;;;;;;4.27;3.87;;;27.30;94.60;;;;;;5022231;28;20834;-54
2021/07/03 11:55:34;;;;;;;3.90;3.60;;;27.60;93.50;;;;;;5023965;28;20475;-53
2021/07/03 11:58:02;;;;;;;4.70;4.30;;;27.10;95.40;;;;;;5031558;28;20489;-54
2021/07/03 12:00:33;;;;;;;4.20;3.80;;;26.70;96.10;;;;;;5026678;28;20445;-53
2021/07/03 12:03:01;;;;;;;3.90;3.50;;;26.90;93.70;;;;;;5022729;28;20448;-52
2021/07/03 12:05:30;;;;;;;3.80;3.50;;;27.10;96.30;;;;;;5028875;28;20457;-53
2021/07/03 12:07:59;;;;;;;3.80;3.50;;;26.60;94.20;;;;;;5012121;28;21041;-52
2021/07/03 12:10:35;;;;;;;3.60;3.30;;;26.40;93.60;;;;;;5011704;28;20453;-53
2021/07/03 12:13:03;;;;;;;5.40;3.73;;;26.70;93.70;;;;;;5011881;28;20491;-52
2021/07/03 12:15:30;;;;;;;3.70;3.37;;;26.80;94.00;;;;;;5011897;28;20457;-54
2021/07/03 12:17:59;;;;;;;4.10;3.80;;;26.40;95.00;;;;;;5017604;28;20535;-53
2021/07/03 12:20:27;;;;;;;3.40;3.13;;;26.30;95.00;;;;;;5031950;28;20448;-55
2021/07/03 12:22:57;;;;;;;3.73;3.33;;;26.00;94.20;;;;;;5017028;28;20473;-54
2021/07/03 12:25:25;;;;;;;4.03;3.63;;;26.00;94.70;;;;;;5011926;28;20441;-55
2021/07/03 12:27:54;;;;;;;2.63;2.43;;;26.30;93.80;;;;;;5011523;28;20953;-54
2021/07/03 12:30:22;;;;;;;3.40;3.10;;;26.70;93.30;;;;;;5026717;28;20457;-54
2021/07/03 12:33:01;;;;;;;3.73;3.43;;;27.00;92.50;;;;;;5030847;28;20444;-53
2021/07/03 12:35:35;;;;;;;3.87;3.47;;;27.20;95.70;;;;;;5031482;28;20452;-53
2021/07/03 12:38:02;;;;;;;4.00;3.10;;;27.40;93.20;;;;;;5031056;28;20571;-53
2021/07/03 12:40:34;;;;;;;4.20;3.63;;;27.40;92.90;;;;;;5031123;28;20510;-53
2021/07/03 12:43:01;;;;;;;3.43;3.13;;;26.80;95.20;;;;;;5030691;28;20475;-53
2021/07/03 12:45:29;;;;;;;3.20;3.00;;;26.90;93.10;;;;;;5030916;28;20471;-53
2021/07/03 12:48:13;;;;;;;4.10;3.50;;;27.30;92.30;;;;;;5031241;28;20522;-53